createdAt,value
2022-07-30T00:01:45.792Z,17.32
2022-07-30T00:05:28.713Z,17.29
2022-07-30T00:09:11.494Z,17.30
2022-07-30T00:12:54.544Z,17.29
2022-07-30T00:16:38.733Z,17.29
2022-07-30T00:20:21.610Z,17.25
2022-07-30T00:24:06.487Z,17.22
2022-07-30T00:27:49.256Z,17.21
2022-07-30T00:31:32.140Z,17.25
2022-07-30T00:35:16.259Z,17.27
2022-07-30T00:39:00.997Z,17.24
2022-07-30T00:42:45.664Z,17.24
2022-07-30T00:46:28.427Z,17.25
2022-07-30T00:50:12.422Z,17.27
2022-07-30T00:53:56.559Z,17.26
2022-07-30T00:57:39.625Z,17.25
2022-07-30T01:01:22.424Z,17.26
2022-07-30T01:05:05.972Z,17.30
2022-07-30T01:08:48.715Z,17.25
2022-07-30T01:12:33.224Z,17.27
2022-07-30T01:16:16.494Z,17.29
2022-07-30T01:20:02.955Z,17.31
2022-07-30T01:23:46.876Z,17.30
2022-07-30T01:27:32.549Z,17.34
2022-07-30T01:31:16.567Z,17.34
2022-07-30T01:35:00.645Z,17.32
2022-07-30T01:38:44.624Z,17.36
2022-07-30T01:42:28.332Z,17.37
2022-07-30T01:46:13.320Z,17.33
2022-07-30T01:49:56.963Z,17.34
2022-07-30T01:53:41.698Z,17.32
2022-07-30T01:57:24.474Z,17.32
2022-07-30T02:01:07.630Z,17.39
2022-07-30T02:04:51.788Z,17.39
2022-07-30T02:08:39.004Z,17.36
2022-07-30T02:12:32.180Z,17.29
2022-07-30T02:16:17.623Z,17.23
2022-07-30T02:20:04.638Z,17.21
2022-07-30T02:23:53.677Z,17.22
2022-07-30T02:27:38.444Z,17.22
2022-07-30T02:31:24.839Z,17.19
2022-07-30T02:35:15.587Z,17.25
2022-07-30T02:38:59.652Z,17.21
2022-07-30T02:42:44.243Z,17.14
2022-07-30T02:46:27.386Z,17.16
2022-07-30T02:50:12.123Z,17.11
2022-07-30T02:53:55.886Z,17.04
2022-07-30T02:57:43.323Z,16.99
2022-07-30T03:01:26.884Z,16.99
2022-07-30T03:05:11.184Z,17.00
2022-07-30T03:08:54.969Z,16.99
2022-07-30T03:12:38.846Z,16.95
2022-07-30T03:16:23.810Z,17.02
2022-07-30T03:20:09.470Z,17.08
2022-07-30T03:23:54.701Z,17.03
2022-07-30T03:27:38.118Z,17.01
2022-07-30T03:31:20.976Z,17.02
2022-07-30T03:35:06.645Z,17.02
2022-07-30T03:38:53.828Z,16.99
2022-07-30T03:42:37.301Z,16.99
2022-07-30T03:46:20.195Z,16.99
2022-07-30T03:50:03.144Z,17.04
2022-07-30T03:53:46.574Z,17.01
2022-07-30T03:57:31.167Z,16.99
2022-07-30T04:01:16.258Z,16.99
2022-07-30T04:04:59.083Z,17.02
2022-07-30T04:08:41.853Z,17.13
2022-07-30T04:12:24.624Z,17.06
2022-07-30T04:16:39.803Z,17.08
2022-07-30T04:20:18.947Z,17.14
2022-07-30T04:24:04.487Z,17.07
2022-07-30T04:28:03.173Z,17.06
2022-07-30T04:31:48.507Z,17.11
2022-07-30T04:35:50.971Z,17.12
2022-07-30T04:39:34.549Z,17.20
2022-07-30T04:43:17.320Z,17.30
2022-07-30T04:47:04.802Z,17.29
2022-07-30T04:50:50.881Z,17.28
2022-07-30T04:54:39.074Z,17.33
2022-07-30T04:58:22.348Z,17.30
2022-07-30T05:02:08.179Z,17.29
2022-07-30T05:05:56.743Z,17.31
2022-07-30T05:09:40.661Z,17.39
2022-07-30T05:13:34.145Z,17.38
2022-07-30T05:17:19.026Z,17.45
2022-07-30T05:21:01.782Z,17.54
2022-07-30T05:24:44.563Z,17.54
2022-07-30T05:28:27.710Z,17.66
2022-07-30T05:32:10.632Z,17.64
2022-07-30T05:35:55.144Z,17.67
2022-07-30T05:39:37.969Z,17.66
2022-07-30T05:43:40.471Z,17.74
2022-07-30T05:47:26.208Z,17.78
2022-07-30T05:51:10.304Z,17.80
2022-07-30T05:54:53.097Z,17.76
2022-07-30T05:58:36.797Z,17.79
2022-07-30T06:02:19.581Z,17.77
2022-07-30T06:06:09.911Z,17.88
2022-07-30T06:09:52.859Z,17.74
2022-07-30T06:13:35.735Z,17.86
2022-07-30T06:17:18.612Z,17.88
2022-07-30T06:21:01.479Z,17.97
2022-07-30T06:24:45.946Z,17.90
2022-07-30T06:28:37.652Z,18.02
2022-07-30T06:32:21.142Z,17.91
2022-07-30T06:36:04.298Z,18.00
2022-07-30T06:39:56.231Z,17.92
2022-07-30T06:43:41.049Z,17.98
2022-07-30T06:47:26.349Z,17.92
2022-07-30T06:51:09.202Z,17.85
2022-07-30T06:54:53.358Z,17.82
2022-07-30T06:58:36.187Z,17.96
2022-07-30T07:02:19.029Z,18.06
2022-07-30T07:06:02.245Z,18.19
2022-07-30T07:09:45.057Z,18.24
2022-07-30T07:13:29.268Z,18.39
2022-07-30T07:17:12.993Z,18.46
2022-07-30T07:20:55.897Z,18.53
2022-07-30T07:24:38.698Z,18.61
2022-07-30T07:28:29.101Z,18.71
2022-07-30T07:32:14.191Z,18.87
2022-07-30T07:35:57.153Z,19.02
2022-07-30T07:39:42.321Z,19.09
2022-07-30T07:43:26.192Z,19.14
2022-07-30T07:47:09.203Z,19.17
2022-07-30T07:50:57.021Z,19.32
2022-07-30T07:54:42.525Z,19.31
2022-07-30T07:58:26.679Z,19.30
2022-07-30T08:02:09.741Z,19.36
2022-07-30T08:06:05.880Z,19.57
2022-07-30T08:09:49.360Z,19.55
2022-07-30T08:13:48.587Z,19.55
2022-07-30T08:17:35.453Z,19.69
2022-07-30T08:21:19.606Z,19.77
2022-07-30T08:25:03.792Z,19.89
2022-07-30T08:28:46.791Z,20.02
2022-07-30T08:32:29.665Z,20.05
2022-07-30T08:36:12.564Z,20.10
2022-07-30T08:39:56.758Z,20.12
2022-07-30T08:43:42.574Z,20.27
2022-07-30T08:47:29.667Z,20.29
2022-07-30T08:51:12.439Z,20.20
2022-07-30T08:54:56.796Z,20.26
2022-07-30T08:58:39.633Z,20.33
2022-07-30T09:02:27.455Z,20.49
2022-07-30T09:06:10.801Z,20.54
2022-07-30T09:09:53.559Z,20.61
2022-07-30T09:13:38.699Z,20.70
2022-07-30T09:17:21.665Z,20.81
2022-07-30T09:21:16.378Z,20.80
2022-07-30T09:24:59.319Z,20.88
2022-07-30T09:28:43.503Z,20.75
2022-07-30T09:32:26.293Z,20.90
2022-07-30T09:36:10.503Z,20.87
2022-07-30T09:39:59.239Z,20.82
2022-07-30T09:43:48.633Z,20.93
2022-07-30T09:47:32.662Z,21.01
2022-07-30T09:51:16.152Z,21.09
2022-07-30T09:54:58.958Z,21.09
2022-07-30T09:58:45.571Z,21.15
2022-07-30T10:02:47.982Z,21.27
2022-07-30T10:06:34.814Z,21.49
2022-07-30T10:10:18.255Z,21.48
2022-07-30T10:14:02.926Z,21.66
2022-07-30T10:17:48.365Z,21.63
2022-07-30T10:21:32.415Z,21.61
2022-07-30T10:25:20.868Z,21.89
2022-07-30T10:29:06.028Z,22.00
2022-07-30T10:32:52.520Z,21.90
2022-07-30T10:36:36.160Z,21.79
2022-07-30T10:40:27.830Z,21.95
2022-07-30T10:44:35.962Z,21.91
2022-07-30T10:48:20.917Z,21.84
2022-07-30T10:52:03.807Z,21.95
2022-07-30T10:56:18.799Z,21.88
2022-07-30T11:00:15.878Z,21.97
2022-07-30T11:04:20.575Z,22.06
2022-07-30T11:08:36.275Z,22.12
2022-07-30T11:12:55.601Z,22.11
2022-07-30T11:17:00.022Z,22.28
2022-07-30T11:20:48.683Z,22.42
2022-07-30T11:24:45.385Z,22.27
2022-07-30T11:28:38.269Z,22.17
2022-07-30T11:32:29.691Z,22.30
2022-07-30T11:36:13.462Z,22.47
2022-07-30T11:40:11.038Z,22.60
2022-07-30T11:44:30.246Z,22.77
2022-07-30T11:48:14.508Z,22.63
2022-07-30T11:51:57.297Z,22.54
2022-07-30T11:55:42.419Z,22.38
2022-07-30T11:59:25.204Z,22.31
2022-07-30T12:03:13.946Z,22.30
2022-07-30T12:06:56.704Z,22.63
2022-07-30T12:10:40.142Z,22.67
2022-07-30T12:14:23.073Z,22.66
2022-07-30T12:18:25.505Z,22.74
2022-07-30T12:22:10.170Z,22.66
2022-07-30T12:25:53.481Z,22.67
2022-07-30T12:29:36.708Z,22.61
2022-07-30T12:33:21.053Z,22.51
2022-07-30T12:37:11.266Z,22.55
2022-07-30T12:40:59.573Z,22.57
2022-07-30T12:44:44.663Z,22.55
2022-07-30T12:48:27.448Z,22.65
2022-07-30T12:52:27.868Z,22.96
2022-07-30T12:56:13.572Z,23.16
2022-07-30T13:00:04.505Z,23.46
2022-07-30T13:03:47.498Z,23.68
2022-07-30T13:07:32.380Z,23.88
2022-07-30T13:11:15.883Z,24.10
2022-07-30T13:14:58.631Z,24.13
2022-07-30T13:18:41.697Z,24.08
2022-07-30T13:22:24.511Z,24.21
2022-07-30T13:26:09.465Z,24.43
2022-07-30T13:29:52.222Z,24.47
2022-07-30T13:33:35.350Z,24.64
2022-07-30T13:37:18.155Z,24.68
2022-07-30T13:41:02.985Z,24.81
2022-07-30T13:44:47.321Z,24.95
2022-07-30T13:48:30.074Z,25.13
2022-07-30T13:52:12.867Z,24.99
2022-07-30T13:55:59.422Z,24.87
2022-07-30T13:59:42.164Z,24.56
2022-07-30T14:03:26.315Z,24.57
2022-07-30T14:07:09.129Z,24.85
2022-07-30T14:10:51.867Z,25.20
2022-07-30T14:14:34.618Z,25.36
2022-07-30T14:18:17.357Z,25.31
2022-07-30T14:22:01.621Z,25.52
2022-07-30T14:25:44.662Z,25.76
2022-07-30T14:29:27.825Z,26.03
2022-07-30T14:33:10.798Z,26.36
2022-07-30T14:36:53.576Z,26.94
2022-07-30T14:40:37.738Z,27.34
2022-07-30T14:44:20.460Z,27.03
2022-07-30T14:48:03.320Z,26.41
2022-07-30T14:51:46.159Z,26.46
2022-07-30T14:55:29.027Z,26.91
2022-07-30T14:59:13.409Z,26.84
2022-07-30T15:02:56.155Z,26.58
2022-07-30T15:06:40.767Z,26.33
2022-07-30T15:10:23.545Z,26.01
2022-07-30T15:14:08.022Z,26.59
2022-07-30T15:17:52.996Z,27.63
2022-07-30T15:21:36.040Z,27.93
2022-07-30T15:25:18.793Z,28.86
2022-07-30T15:29:01.540Z,27.55
2022-07-30T15:32:44.779Z,27.04
2022-07-30T15:36:28.881Z,28.91
2022-07-30T15:40:11.961Z,28.92
2022-07-30T15:43:54.703Z,29.04
2022-07-30T15:47:37.456Z,30.06
2022-07-30T15:51:20.224Z,30.78
2022-07-30T15:55:04.519Z,30.30
2022-07-30T15:58:47.306Z,30.73
2022-07-30T16:02:30.017Z,31.53
2022-07-30T16:06:12.770Z,31.01
2022-07-30T16:09:55.564Z,29.75
2022-07-30T16:13:39.661Z,28.17
2022-07-30T16:17:22.453Z,27.15
2022-07-30T16:21:06.008Z,26.84
2022-07-30T16:24:49.019Z,26.11
2022-07-30T16:28:33.116Z,25.56
2022-07-30T16:32:17.243Z,25.29
2022-07-30T16:36:00.046Z,25.42
2022-07-30T16:39:42.823Z,26.22
2022-07-30T16:43:25.697Z,26.76
2022-07-30T16:47:13.466Z,27.18
2022-07-30T16:50:58.046Z,27.54
2022-07-30T16:54:40.822Z,27.71
2022-07-30T16:58:30.666Z,27.67
2022-07-30T17:02:13.957Z,27.50
2022-07-30T17:05:58.113Z,27.02
2022-07-30T17:09:40.887Z,26.65
2022-07-30T17:13:23.715Z,26.23
2022-07-30T17:17:09.627Z,25.88
2022-07-30T17:20:55.031Z,25.91
2022-07-30T17:24:39.140Z,26.17
2022-07-30T17:28:26.953Z,25.92
2022-07-30T17:32:11.929Z,25.56
2022-07-30T17:35:54.743Z,25.26
2022-07-30T17:40:27.716Z,25.03
2022-07-30T17:43:41.794Z,24.83
2022-07-30T17:47:25.124Z,24.65
2022-07-30T17:51:07.968Z,24.57
2022-07-30T17:54:52.050Z,24.38
2022-07-30T17:58:34.857Z,24.32
2022-07-30T18:02:17.742Z,24.08
2022-07-30T18:06:07.067Z,23.95
2022-07-30T18:09:49.820Z,23.86
2022-07-30T18:13:34.755Z,23.81
2022-07-30T18:17:17.525Z,23.70
2022-07-30T18:21:00.290Z,23.65
2022-07-30T18:24:43.715Z,23.53
2022-07-30T18:28:27.055Z,23.53
2022-07-30T18:32:11.256Z,23.31
2022-07-30T18:35:54.053Z,23.12
2022-07-30T18:39:36.845Z,22.56
2022-07-30T18:43:19.661Z,21.48
2022-07-30T18:47:02.497Z,20.52
2022-07-30T18:50:46.697Z,19.95
2022-07-30T18:54:29.655Z,19.58
2022-07-30T18:58:12.562Z,19.38
2022-07-30T19:01:55.330Z,19.28
2022-07-30T19:05:38.308Z,19.25
2022-07-30T19:09:22.410Z,19.29
2022-07-30T19:13:05.179Z,19.37
2022-07-30T19:16:48.200Z,19.41
2022-07-30T19:20:31.959Z,19.45
2022-07-30T19:24:14.771Z,19.41
2022-07-30T19:28:01.316Z,19.27
2022-07-30T19:31:44.199Z,19.15
2022-07-30T19:35:27.262Z,19.09
2022-07-30T19:39:15.959Z,19.01
2022-07-30T19:43:06.418Z,19.00
2022-07-30T19:46:54.063Z,19.00
2022-07-30T19:50:39.065Z,19.00
2022-07-30T19:54:22.716Z,19.01
2022-07-30T19:58:15.889Z,18.97
2022-07-30T20:01:59.286Z,18.99
2022-07-30T20:05:54.758Z,18.99
2022-07-30T20:09:42.839Z,18.95
2022-07-30T20:13:46.233Z,18.91
2022-07-30T20:17:29.120Z,18.89
2022-07-30T20:21:17.847Z,18.91
2022-07-30T20:25:00.932Z,18.82
2022-07-30T20:28:52.400Z,18.73
2022-07-30T20:32:35.949Z,18.71
2022-07-30T20:36:19.189Z,18.66
2022-07-30T20:40:01.987Z,18.64
2022-07-30T20:43:52.439Z,18.58
2022-07-30T20:47:49.055Z,18.53
2022-07-30T20:51:33.602Z,18.49
2022-07-30T20:55:17.610Z,18.45
2022-07-30T20:59:04.010Z,18.41
2022-07-30T21:02:46.907Z,18.37
2022-07-30T21:06:29.577Z,18.31
2022-07-30T21:10:12.699Z,18.25
2022-07-30T21:13:57.429Z,18.22
2022-07-30T21:17:42.704Z,18.18
2022-07-30T21:21:30.493Z,18.12
2022-07-30T21:25:32.474Z,18.07
2022-07-30T21:29:16.803Z,18.07
2022-07-30T21:33:00.958Z,18.06
2022-07-30T21:36:43.724Z,18.03
2022-07-30T21:40:29.450Z,18.14
2022-07-30T21:44:12.267Z,18.25
2022-07-30T21:47:55.103Z,18.21
2022-07-30T21:51:39.645Z,18.14
2022-07-30T21:55:23.109Z,18.08
2022-07-30T21:59:06.983Z,18.05
2022-07-30T22:02:52.866Z,18.12
2022-07-30T22:10:42.748Z,18.16
2022-07-30T22:14:25.824Z,18.00
2022-07-30T22:18:08.643Z,18.03
2022-07-30T22:21:52.054Z,18.00
2022-07-30T22:25:41.579Z,18.04
2022-07-30T22:29:34.098Z,18.08
2022-07-30T22:33:19.742Z,18.07
2022-07-30T22:37:02.535Z,18.03
2022-07-30T22:40:46.115Z,17.98
2022-07-30T22:44:30.294Z,17.99
2022-07-30T22:48:13.074Z,17.97
2022-07-30T22:52:02.820Z,17.90
2022-07-30T22:55:53.097Z,17.87
2022-07-30T22:59:59.757Z,17.82
2022-07-30T23:03:42.179Z,17.77
2022-07-30T23:07:34.556Z,17.75
2022-07-30T23:11:22.479Z,17.76
2022-07-30T23:12:28.283Z,18.15
2022-07-30T23:15:09.052Z,17.69
2022-07-30T23:18:51.825Z,17.65
2022-07-30T23:22:34.662Z,17.62
2022-07-30T23:26:17.432Z,17.59
2022-07-30T23:30:00.257Z,17.60
2022-07-30T23:33:44.347Z,17.60
2022-07-30T23:37:27.353Z,17.58
2022-07-30T23:41:10.246Z,17.58
2022-07-30T23:44:52.976Z,17.54
2022-07-30T23:48:35.768Z,17.59
2022-07-30T23:52:19.982Z,17.54
2022-07-30T23:56:03.464Z,17.49
2022-07-30T23:59:46.281Z,17.39
